sensor_id;sensor_type;location;lat;lon;timestamp;P1;durP1;ratioP1;P2;durP2;ratioP2
7767;SDS011;3928;42.626;23.382;2023-08-21T00:01:47;7.45;;;5.80;;
7767;SDS011;3928;42.626;23.382;2023-08-21T00:04:14;9.65;;;6.53;;
7767;SDS011;3928;42.626;23.382;2023-08-21T00:06:41;6.53;;;5.82;;
7767;SDS011;3928;42.626;23.382;2023-08-21T00:09:07;8.73;;;6.65;;
7767;SDS011;3928;42.626;23.382;2023-08-21T00:11:34;7.43;;;6.68;;
7767;SDS011;3928;42.626;23.382;2023-08-21T00:14:01;7.40;;;6.57;;
7767;SDS011;3928;42.626;23.382;2023-08-21T00:16:28;16.08;;;7.07;;
7767;SDS011;3928;42.626;23.382;2023-08-21T00:18:56;7.80;;;5.80;;
7767;SDS011;3928;42.626;23.382;2023-08-21T00:21:23;8.63;;;6.07;;
7767;SDS011;3928;42.626;23.382;2023-08-21T00:23:50;8.45;;;6.13;;
7767;SDS011;3928;42.626;23.382;2023-08-21T00:26:17;10.88;;;6.97;;
7767;SDS011;3928;42.626;23.382;2023-08-21T00:28:44;7.30;;;6.20;;
7767;SDS011;3928;42.626;23.382;2023-08-21T00:31:10;6.63;;;5.90;;
7767;SDS011;3928;42.626;23.382;2023-08-21T00:33:37;6.15;;;5.28;;
7767;SDS011;3928;42.626;23.382;2023-08-21T00:36:06;7.38;;;5.75;;
7767;SDS011;3928;42.626;23.382;2023-08-21T00:38:32;6.93;;;6.22;;
7767;SDS011;3928;42.626;23.382;2023-08-21T00:40:59;8.23;;;6.15;;
7767;SDS011;3928;42.626;23.382;2023-08-21T00:43:26;6.68;;;6.00;;
7767;SDS011;3928;42.626;23.382;2023-08-21T00:45:53;6.88;;;6.18;;
7767;SDS011;3928;42.626;23.382;2023-08-21T00:48:20;6.95;;;5.85;;
7767;SDS011;3928;42.626;23.382;2023-08-21T00:50:47;9.55;;;6.13;;
7767;SDS011;3928;42.626;23.382;2023-08-21T00:53:17;6.63;;;6.03;;
7767;SDS011;3928;42.626;23.382;2023-08-21T00:55:44;10.20;;;6.13;;
7767;SDS011;3928;42.626;23.382;2023-08-21T00:58:12;8.35;;;6.30;;
7767;SDS011;3928;42.626;23.382;2023-08-21T01:00:40;8.00;;;6.07;;
7767;SDS011;3928;42.626;23.382;2023-08-21T01:03:08;7.93;;;6.20;;
7767;SDS011;3928;42.626;23.382;2023-08-21T01:05:35;9.23;;;6.65;;
7767;SDS011;3928;42.626;23.382;2023-08-21T01:08:02;9.27;;;6.22;;
7767;SDS011;3928;42.626;23.382;2023-08-21T01:10:45;6.40;;;5.80;;
7767;SDS011;3928;42.626;23.382;2023-08-21T01:13:23;5.93;;;5.40;;
7767;SDS011;3928;42.626;23.382;2023-08-21T01:15:57;6.47;;;5.90;;
7767;SDS011;3928;42.626;23.382;2023-08-21T01:18:25;6.85;;;6.15;;
7767;SDS011;3928;42.626;23.382;2023-08-21T01:20:54;8.23;;;5.93;;
7767;SDS011;3928;42.626;23.382;2023-08-21T01:23:29;7.43;;;6.72;;
7767;SDS011;3928;42.626;23.382;2023-08-21T01:25:57;7.30;;;6.65;;
7767;SDS011;3928;42.626;23.382;2023-08-21T01:28:24;7.18;;;6.13;;
7767;SDS011;3928;42.626;23.382;2023-08-21T01:31:01;8.88;;;6.40;;
7767;SDS011;3928;42.626;23.382;2023-08-21T01:33:35;6.85;;;5.65;;
7767;SDS011;3928;42.626;23.382;2023-08-21T01:36:07;7.47;;;6.25;;
7767;SDS011;3928;42.626;23.382;2023-08-21T01:38:36;6.40;;;5.38;;
7767;SDS011;3928;42.626;23.382;2023-08-21T01:41:03;9.02;;;7.00;;
7767;SDS011;3928;42.626;23.382;2023-08-21T01:43:30;8.27;;;6.65;;
7767;SDS011;3928;42.626;23.382;2023-08-21T01:45:57;6.65;;;6.05;;
7767;SDS011;3928;42.626;23.382;2023-08-21T01:48:24;8.75;;;5.75;;
7767;SDS011;3928;42.626;23.382;2023-08-21T01:50:50;6.47;;;5.82;;
7767;SDS011;3928;42.626;23.382;2023-08-21T01:53:17;7.35;;;6.55;;
7767;SDS011;3928;42.626;23.382;2023-08-21T01:55:45;7.20;;;6.28;;
7767;SDS011;3928;42.626;23.382;2023-08-21T01:58:12;9.38;;;6.07;;
7767;SDS011;3928;42.626;23.382;2023-08-21T02:00:39;7.82;;;6.82;;
7767;SDS011;3928;42.626;23.382;2023-08-21T02:03:06;7.43;;;6.53;;
7767;SDS011;3928;42.626;23.382;2023-08-21T02:05:37;7.82;;;6.32;;
7767;SDS011;3928;42.626;23.382;2023-08-21T02:08:05;7.88;;;5.80;;
7767;SDS011;3928;42.626;23.382;2023-08-21T02:10:32;7.75;;;6.40;;
7767;SDS011;3928;42.626;23.382;2023-08-21T02:13:00;6.93;;;5.95;;
7767;SDS011;3928;42.626;23.382;2023-08-21T02:15:27;7.05;;;6.32;;
7767;SDS011;3928;42.626;23.382;2023-08-21T02:17:54;6.68;;;5.97;;
7767;SDS011;3928;42.626;23.382;2023-08-21T02:20:21;8.30;;;6.28;;
7767;SDS011;3928;42.626;23.382;2023-08-21T02:22:48;7.00;;;6.05;;
7767;SDS011;3928;42.626;23.382;2023-08-21T02:25:14;7.13;;;6.13;;
7767;SDS011;3928;42.626;23.382;2023-08-21T02:27:41;6.28;;;5.68;;
7767;SDS011;3928;42.626;23.382;2023-08-21T02:30:10;7.10;;;5.68;;
7767;SDS011;3928;42.626;23.382;2023-08-21T02:32:37;10.20;;;6.20;;
7767;SDS011;3928;42.626;23.382;2023-08-21T02:35:05;6.80;;;6.20;;
7767;SDS011;3928;42.626;23.382;2023-08-21T02:37:33;7.20;;;6.20;;
7767;SDS011;3928;42.626;23.382;2023-08-21T02:40:00;9.35;;;6.22;;
7767;SDS011;3928;42.626;23.382;2023-08-21T02:42:27;8.40;;;6.38;;
7767;SDS011;3928;42.626;23.382;2023-08-21T02:44:54;5.93;;;5.32;;
7767;SDS011;3928;42.626;23.382;2023-08-21T02:47:22;6.75;;;5.78;;
7767;SDS011;3928;42.626;23.382;2023-08-21T02:49:49;8.07;;;6.32;;
7767;SDS011;3928;42.626;23.382;2023-08-21T02:52:17;8.55;;;6.57;;
7767;SDS011;3928;42.626;23.382;2023-08-21T02:54:44;6.68;;;6.10;;
7767;SDS011;3928;42.626;23.382;2023-08-21T02:57:11;6.80;;;6.03;;
7767;SDS011;3928;42.626;23.382;2023-08-21T02:59:38;7.55;;;5.60;;
7767;SDS011;3928;42.626;23.382;2023-08-21T03:02:05;8.07;;;5.72;;
7767;SDS011;3928;42.626;23.382;2023-08-21T03:04:33;7.72;;;5.95;;
7767;SDS011;3928;42.626;23.382;2023-08-21T03:07:00;8.10;;;6.63;;
7767;SDS011;3928;42.626;23.382;2023-08-21T03:09:26;7.10;;;5.68;;
7767;SDS011;3928;42.626;23.382;2023-08-21T03:11:53;6.82;;;6.13;;
7767;SDS011;3928;42.626;23.382;2023-08-21T03:14:20;10.88;;;6.40;;
7767;SDS011;3928;42.626;23.382;2023-08-21T03:16:47;6.28;;;5.78;;
7767;SDS011;3928;42.626;23.382;2023-08-21T03:19:14;6.55;;;5.95;;
7767;SDS011;3928;42.626;23.382;2023-08-21T03:21:42;6.63;;;6.03;;
7767;SDS011;3928;42.626;23.382;2023-08-21T03:24:09;7.30;;;6.00;;
7767;SDS011;3928;42.626;23.382;2023-08-21T03:26:36;8.55;;;6.40;;
7767;SDS011;3928;42.626;23.382;2023-08-21T03:29:02;7.85;;;6.28;;
7767;SDS011;3928;42.626;23.382;2023-08-21T03:31:29;7.10;;;6.40;;
7767;SDS011;3928;42.626;23.382;2023-08-21T03:33:56;8.77;;;6.53;;
7767;SDS011;3928;42.626;23.382;2023-08-21T03:36:23;8.35;;;6.30;;
7767;SDS011;3928;42.626;23.382;2023-08-21T03:38:57;6.38;;;5.78;;
7767;SDS011;3928;42.626;23.382;2023-08-21T03:41:24;8.20;;;6.43;;
7767;SDS011;3928;42.626;23.382;2023-08-21T03:43:51;6.47;;;5.78;;
7767;SDS011;3928;42.626;23.382;2023-08-21T03:46:17;6.45;;;5.78;;
7767;SDS011;3928;42.626;23.382;2023-08-21T03:48:44;7.97;;;5.85;;
7767;SDS011;3928;42.626;23.382;2023-08-21T03:51:11;7.80;;;6.30;;
7767;SDS011;3928;42.626;23.382;2023-08-21T03:53:39;7.05;;;6.40;;
7767;SDS011;3928;42.626;23.382;2023-08-21T03:56:07;13.68;;;9.23;;
7767;SDS011;3928;42.626;23.382;2023-08-21T03:58:34;14.50;;;12.45;;
7767;SDS011;3928;42.626;23.382;2023-08-21T04:01:01;15.05;;;12.15;;
7767;SDS011;3928;42.626;23.382;2023-08-21T04:03:28;7.38;;;6.68;;
7767;SDS011;3928;42.626;23.382;2023-08-21T04:05:55;9.77;;;6.88;;
7767;SDS011;3928;42.626;23.382;2023-08-21T04:08:22;8.68;;;6.63;;
7767;SDS011;3928;42.626;23.382;2023-08-21T04:10:50;6.78;;;6.07;;
7767;SDS011;3928;42.626;23.382;2023-08-21T04:13:19;8.20;;;5.90;;
7767;SDS011;3928;42.626;23.382;2023-08-21T04:15:47;9.85;;;6.57;;
7767;SDS011;3928;42.626;23.382;2023-08-21T04:18:16;10.73;;;6.68;;
7767;SDS011;3928;42.626;23.382;2023-08-21T04:20:42;11.60;;;10.35;;
7767;SDS011;3928;42.626;23.382;2023-08-21T04:23:09;15.73;;;12.13;;
7767;SDS011;3928;42.626;23.382;2023-08-21T04:25:36;9.18;;;7.30;;
7767;SDS011;3928;42.626;23.382;2023-08-21T04:28:03;8.32;;;7.45;;
7767;SDS011;3928;42.626;23.382;2023-08-21T04:30:32;7.40;;;6.70;;
7767;SDS011;3928;42.626;23.382;2023-08-21T04:32:59;8.63;;;6.10;;
7767;SDS011;3928;42.626;23.382;2023-08-21T04:35:26;8.45;;;6.47;;
7767;SDS011;3928;42.626;23.382;2023-08-21T04:37:53;14.75;;;7.15;;
7767;SDS011;3928;42.626;23.382;2023-08-21T04:40:20;7.40;;;6.50;;
7767;SDS011;3928;42.626;23.382;2023-08-21T04:42:47;9.15;;;6.10;;
7767;SDS011;3928;42.626;23.382;2023-08-21T04:45:14;8.40;;;5.97;;
7767;SDS011;3928;42.626;23.382;2023-08-21T04:47:42;12.45;;;6.40;;
7767;SDS011;3928;42.626;23.382;2023-08-21T04:50:09;11.80;;;6.80;;
7767;SDS011;3928;42.626;23.382;2023-08-21T04:52:38;14.63;;;7.30;;
7767;SDS011;3928;42.626;23.382;2023-08-21T04:55:05;11.85;;;7.15;;
7767;SDS011;3928;42.626;23.382;2023-08-21T04:57:33;8.07;;;6.80;;
7767;SDS011;3928;42.626;23.382;2023-08-21T05:00:00;9.45;;;6.20;;
7767;SDS011;3928;42.626;23.382;2023-08-21T05:02:29;33.60;;;26.00;;
7767;SDS011;3928;42.626;23.382;2023-08-21T05:04:58;30.08;;;21.35;;
7767;SDS011;3928;42.626;23.382;2023-08-21T05:07:25;26.63;;;18.42;;
7767;SDS011;3928;42.626;23.382;2023-08-21T05:09:53;14.02;;;10.25;;
7767;SDS011;3928;42.626;23.382;2023-08-21T05:12:19;11.88;;;7.05;;
7767;SDS011;3928;42.626;23.382;2023-08-21T05:14:46;11.75;;;7.93;;
7767;SDS011;3928;42.626;23.382;2023-08-21T05:17:13;15.98;;;7.57;;
7767;SDS011;3928;42.626;23.382;2023-08-21T05:19:40;10.77;;;7.60;;
7767;SDS011;3928;42.626;23.382;2023-08-21T05:22:08;11.52;;;6.65;;
7767;SDS011;3928;42.626;23.382;2023-08-21T05:24:35;10.75;;;7.10;;
7767;SDS011;3928;42.626;23.382;2023-08-21T05:27:02;15.20;;;7.03;;
7767;SDS011;3928;42.626;23.382;2023-08-21T05:29:29;13.80;;;7.25;;
7767;SDS011;3928;42.626;23.382;2023-08-21T05:31:56;12.43;;;7.00;;
7767;SDS011;3928;42.626;23.382;2023-08-21T05:34:23;18.92;;;7.88;;
7767;SDS011;3928;42.626;23.382;2023-08-21T05:36:50;10.80;;;6.45;;
7767;SDS011;3928;42.626;23.382;2023-08-21T05:39:20;15.32;;;7.35;;
7767;SDS011;3928;42.626;23.382;2023-08-21T05:41:47;12.40;;;7.13;;
7767;SDS011;3928;42.626;23.382;2023-08-21T05:44:14;13.77;;;7.32;;
7767;SDS011;3928;42.626;23.382;2023-08-21T05:46:41;13.93;;;7.63;;
7767;SDS011;3928;42.626;23.382;2023-08-21T05:49:08;11.13;;;7.15;;
7767;SDS011;3928;42.626;23.382;2023-08-21T05:51:35;16.38;;;8.38;;
7767;SDS011;3928;42.626;23.382;2023-08-21T05:54:02;18.10;;;16.15;;
7767;SDS011;3928;42.626;23.382;2023-08-21T05:56:30;45.95;;;35.33;;
7767;SDS011;3928;42.626;23.382;2023-08-21T05:58:59;16.15;;;13.32;;
7767;SDS011;3928;42.626;23.382;2023-08-21T06:01:25;12.63;;;8.52;;
7767;SDS011;3928;42.626;23.382;2023-08-21T06:03:53;18.08;;;9.70;;
7767;SDS011;3928;42.626;23.382;2023-08-21T06:06:19;21.02;;;8.88;;
7767;SDS011;3928;42.626;23.382;2023-08-21T06:08:46;14.88;;;8.43;;
7767;SDS011;3928;42.626;23.382;2023-08-21T06:11:13;17.45;;;8.15;;
7767;SDS011;3928;42.626;23.382;2023-08-21T06:13:42;10.57;;;8.30;;
7767;SDS011;3928;42.626;23.382;2023-08-21T06:16:09;13.27;;;7.97;;
7767;SDS011;3928;42.626;23.382;2023-08-21T06:18:36;13.70;;;7.88;;
7767;SDS011;3928;42.626;23.382;2023-08-21T06:21:03;8.00;;;7.03;;
7767;SDS011;3928;42.626;23.382;2023-08-21T06:23:29;12.27;;;7.70;;
7767;SDS011;3928;42.626;23.382;2023-08-21T06:25:56;17.02;;;7.63;;
7767;SDS011;3928;42.626;23.382;2023-08-21T06:28:26;13.85;;;7.20;;
7767;SDS011;3928;42.626;23.382;2023-08-21T06:30:56;12.07;;;8.02;;
7767;SDS011;3928;42.626;23.382;2023-08-21T06:33:24;13.00;;;7.97;;
7767;SDS011;3928;42.626;23.382;2023-08-21T06:35:51;14.55;;;7.63;;
7767;SDS011;3928;42.626;23.382;2023-08-21T06:38:17;13.35;;;7.55;;
7767;SDS011;3928;42.626;23.382;2023-08-21T06:40:44;9.73;;;7.63;;
7767;SDS011;3928;42.626;23.382;2023-08-21T06:43:11;9.57;;;6.95;;
7767;SDS011;3928;42.626;23.382;2023-08-21T06:45:38;11.55;;;7.03;;
7767;SDS011;3928;42.626;23.382;2023-08-21T06:48:07;8.90;;;7.00;;
7767;SDS011;3928;42.626;23.382;2023-08-21T06:50:34;12.02;;;7.38;;
7767;SDS011;3928;42.626;23.382;2023-08-21T06:53:03;10.98;;;7.40;;
7767;SDS011;3928;42.626;23.382;2023-08-21T06:55:30;11.35;;;7.55;;
7767;SDS011;3928;42.626;23.382;2023-08-21T06:57:57;8.80;;;7.07;;
7767;SDS011;3928;42.626;23.382;2023-08-21T07:00:24;18.42;;;14.90;;
7767;SDS011;3928;42.626;23.382;2023-08-21T07:02:51;34.35;;;28.38;;
7767;SDS011;3928;42.626;23.382;2023-08-21T07:05:20;17.05;;;12.80;;
7767;SDS011;3928;42.626;23.382;2023-08-21T07:07:47;10.65;;;7.97;;
7767;SDS011;3928;42.626;23.382;2023-08-21T07:10:14;15.98;;;8.60;;
7767;SDS011;3928;42.626;23.382;2023-08-21T07:12:41;15.88;;;9.05;;
7767;SDS011;3928;42.626;23.382;2023-08-21T07:15:08;20.83;;;8.88;;
7767;SDS011;3928;42.626;23.382;2023-08-21T07:17:36;15.20;;;8.27;;
7767;SDS011;3928;42.626;23.382;2023-08-21T07:20:03;13.52;;;7.30;;
7767;SDS011;3928;42.626;23.382;2023-08-21T07:22:31;9.57;;;7.50;;
7767;SDS011;3928;42.626;23.382;2023-08-21T07:24:58;10.57;;;6.97;;
7767;SDS011;3928;42.626;23.382;2023-08-21T07:27:25;10.15;;;7.03;;
7767;SDS011;3928;42.626;23.382;2023-08-21T07:29:52;8.35;;;6.85;;
7767;SDS011;3928;42.626;23.382;2023-08-21T07:32:19;10.82;;;6.47;;
7767;SDS011;3928;42.626;23.382;2023-08-21T07:34:46;8.43;;;6.50;;
7767;SDS011;3928;42.626;23.382;2023-08-21T07:37:13;12.13;;;6.75;;
7767;SDS011;3928;42.626;23.382;2023-08-21T07:39:41;7.78;;;6.28;;
7767;SDS011;3928;42.626;23.382;2023-08-21T07:42:10;12.90;;;7.22;;
7767;SDS011;3928;42.626;23.382;2023-08-21T07:44:38;12.13;;;7.32;;
7767;SDS011;3928;42.626;23.382;2023-08-21T07:47:05;10.93;;;6.72;;
7767;SDS011;3928;42.626;23.382;2023-08-21T07:49:32;11.55;;;7.80;;
7767;SDS011;3928;42.626;23.382;2023-08-21T07:51:59;10.00;;;6.60;;
7767;SDS011;3928;42.626;23.382;2023-08-21T07:54:26;15.23;;;6.30;;
7767;SDS011;3928;42.626;23.382;2023-08-21T07:56:54;15.20;;;7.07;;
7767;SDS011;3928;42.626;23.382;2023-08-21T07:59:21;12.65;;;7.03;;
7767;SDS011;3928;42.626;23.382;2023-08-21T08:01:48;7.30;;;6.60;;
7767;SDS011;3928;42.626;23.382;2023-08-21T08:04:14;11.73;;;6.47;;
7767;SDS011;3928;42.626;23.382;2023-08-21T08:06:41;11.10;;;6.60;;
7767;SDS011;3928;42.626;23.382;2023-08-21T08:09:08;7.15;;;5.90;;
7767;SDS011;3928;42.626;23.382;2023-08-21T08:11:35;8.48;;;5.60;;
7767;SDS011;3928;42.626;23.382;2023-08-21T08:14:04;9.32;;;6.53;;
7767;SDS011;3928;42.626;23.382;2023-08-21T08:16:31;11.43;;;6.22;;
7767;SDS011;3928;42.626;23.382;2023-08-21T08:18:57;11.52;;;6.30;;
7767;SDS011;3928;42.626;23.382;2023-08-21T08:21:24;8.93;;;5.70;;
7767;SDS011;3928;42.626;23.382;2023-08-21T08:23:51;12.35;;;6.32;;
7767;SDS011;3928;42.626;23.382;2023-08-21T08:26:18;10.20;;;6.05;;
7767;SDS011;3928;42.626;23.382;2023-08-21T08:28:45;9.05;;;5.68;;
7767;SDS011;3928;42.626;23.382;2023-08-21T08:31:16;8.80;;;5.70;;
7767;SDS011;3928;42.626;23.382;2023-08-21T08:33:43;9.18;;;6.68;;
7767;SDS011;3928;42.626;23.382;2023-08-21T08:36:10;6.25;;;5.60;;
7767;SDS011;3928;42.626;23.382;2023-08-21T08:38:37;7.75;;;5.28;;
7767;SDS011;3928;42.626;23.382;2023-08-21T08:41:05;9.68;;;6.18;;
7767;SDS011;3928;42.626;23.382;2023-08-21T08:43:44;11.38;;;5.95;;
7767;SDS011;3928;42.626;23.382;2023-08-21T08:46:11;10.38;;;6.00;;
7767;SDS011;3928;42.626;23.382;2023-08-21T08:48:41;9.13;;;6.32;;
7767;SDS011;3928;42.626;23.382;2023-08-21T08:51:08;8.75;;;6.13;;
7767;SDS011;3928;42.626;23.382;2023-08-21T08:53:36;6.15;;;5.53;;
7767;SDS011;3928;42.626;23.382;2023-08-21T08:56:04;7.03;;;5.68;;
7767;SDS011;3928;42.626;23.382;2023-08-21T08:58:31;10.32;;;5.80;;
7767;SDS011;3928;42.626;23.382;2023-08-21T09:00:58;6.07;;;5.47;;
7767;SDS011;3928;42.626;23.382;2023-08-21T09:03:24;9.50;;;5.90;;
7767;SDS011;3928;42.626;23.382;2023-08-21T09:05:53;5.72;;;5.22;;
7767;SDS011;3928;42.626;23.382;2023-08-21T09:08:20;6.32;;;5.63;;
7767;SDS011;3928;42.626;23.382;2023-08-21T09:10:47;8.77;;;5.20;;
7767;SDS011;3928;42.626;23.382;2023-08-21T09:13:14;16.75;;;6.18;;
7767;SDS011;3928;42.626;23.382;2023-08-21T09:15:42;10.60;;;8.23;;
7767;SDS011;3928;42.626;23.382;2023-08-21T09:18:10;11.20;;;7.25;;
7767;SDS011;3928;42.626;23.382;2023-08-21T09:20:37;7.45;;;5.13;;
7767;SDS011;3928;42.626;23.382;2023-08-21T09:23:06;8.40;;;5.38;;
7767;SDS011;3928;42.626;23.382;2023-08-21T09:25:34;8.82;;;5.07;;
7767;SDS011;3928;42.626;23.382;2023-08-21T09:28:03;6.68;;;4.80;;
7767;SDS011;3928;42.626;23.382;2023-08-21T09:33:18;5.57;;;4.93;;
7767;SDS011;3928;42.626;23.382;2023-08-21T09:35:46;7.93;;;5.47;;
7767;SDS011;3928;42.626;23.382;2023-08-21T09:38:15;11.95;;;6.13;;
7767;SDS011;3928;42.626;23.382;2023-08-21T09:40:49;7.85;;;5.28;;
7767;SDS011;3928;42.626;23.382;2023-08-21T09:43:16;6.97;;;5.32;;
7767;SDS011;3928;42.626;23.382;2023-08-21T09:45:45;9.98;;;5.68;;
7767;SDS011;3928;42.626;23.382;2023-08-21T09:48:13;9.30;;;5.15;;
7767;SDS011;3928;42.626;23.382;2023-08-21T09:50:40;12.63;;;4.90;;
7767;SDS011;3928;42.626;23.382;2023-08-21T09:53:09;11.00;;;4.68;;
7767;SDS011;3928;42.626;23.382;2023-08-21T09:55:38;8.48;;;4.97;;
7767;SDS011;3928;42.626;23.382;2023-08-21T09:58:06;6.47;;;4.80;;
7767;SDS011;3928;42.626;23.382;2023-08-21T10:00:34;11.40;;;5.45;;
7767;SDS011;3928;42.626;23.382;2023-08-21T10:03:03;9.85;;;5.50;;
7767;SDS011;3928;42.626;23.382;2023-08-21T10:05:33;9.23;;;5.07;;
7767;SDS011;3928;42.626;23.382;2023-08-21T10:08:01;6.03;;;4.97;;
7767;SDS011;3928;42.626;23.382;2023-08-21T10:10:29;6.88;;;5.53;;
7767;SDS011;3928;42.626;23.382;2023-08-21T10:12:59;9.73;;;5.00;;
7767;SDS011;3928;42.626;23.382;2023-08-21T10:15:27;9.55;;;4.97;;
7767;SDS011;3928;42.626;23.382;2023-08-21T10:17:54;7.40;;;4.72;;
7767;SDS011;3928;42.626;23.382;2023-08-21T10:20:22;7.30;;;4.93;;
7767;SDS011;3928;42.626;23.382;2023-08-21T10:22:49;6.38;;;4.97;;
7767;SDS011;3928;42.626;23.382;2023-08-21T10:25:20;15.82;;;5.22;;
7767;SDS011;3928;42.626;23.382;2023-08-21T10:27:49;7.90;;;4.93;;
7767;SDS011;3928;42.626;23.382;2023-08-21T10:30:21;11.30;;;5.95;;
7767;SDS011;3928;42.626;23.382;2023-08-21T10:32:49;7.40;;;4.90;;
7767;SDS011;3928;42.626;23.382;2023-08-21T10:35:18;9.68;;;5.03;;
7767;SDS011;3928;42.626;23.382;2023-08-21T10:38:05;6.38;;;4.90;;
7767;SDS011;3928;42.626;23.382;2023-08-21T10:40:37;11.32;;;5.25;;
7767;SDS011;3928;42.626;23.382;2023-08-21T10:43:05;7.25;;;4.93;;
7767;SDS011;3928;42.626;23.382;2023-08-21T10:46:05;14.82;;;5.40;;
7767;SDS011;3928;42.626;23.382;2023-08-21T10:48:33;10.88;;;5.07;;
7767;SDS011;3928;42.626;23.382;2023-08-21T10:51:01;8.25;;;5.00;;
7767;SDS011;3928;42.626;23.382;2023-08-21T10:53:30;9.68;;;4.80;;
7767;SDS011;3928;42.626;23.382;2023-08-21T10:56:00;7.05;;;4.70;;
7767;SDS011;3928;42.626;23.382;2023-08-21T10:58:27;6.60;;;4.57;;
7767;SDS011;3928;42.626;23.382;2023-08-21T11:00:57;9.65;;;5.00;;
7767;SDS011;3928;42.626;23.382;2023-08-21T11:03:26;7.57;;;4.70;;
7767;SDS011;3928;42.626;23.382;2023-08-21T11:06:03;9.50;;;5.47;;
7767;SDS011;3928;42.626;23.382;2023-08-21T11:08:31;7.70;;;4.68;;
7767;SDS011;3928;42.626;23.382;2023-08-21T11:10:59;6.55;;;4.38;;
7767;SDS011;3928;42.626;23.382;2023-08-21T11:13:26;9.10;;;4.45;;
7767;SDS011;3928;42.626;23.382;2023-08-21T11:15:59;10.02;;;6.85;;
7767;SDS011;3928;42.626;23.382;2023-08-21T11:18:32;14.35;;;12.85;;
7767;SDS011;3928;42.626;23.382;2023-08-21T11:21:06;6.85;;;5.88;;
7767;SDS011;3928;42.626;23.382;2023-08-21T11:23:35;8.45;;;5.00;;
7767;SDS011;3928;42.626;23.382;2023-08-21T11:26:03;6.57;;;4.97;;
7767;SDS011;3928;42.626;23.382;2023-08-21T11:28:30;7.38;;;5.20;;
7767;SDS011;3928;42.626;23.382;2023-08-21T11:30:58;8.68;;;4.97;;
7767;SDS011;3928;42.626;23.382;2023-08-21T11:33:26;5.82;;;5.13;;
7767;SDS011;3928;42.626;23.382;2023-08-21T11:35:55;8.05;;;5.00;;
7767;SDS011;3928;42.626;23.382;2023-08-21T11:38:23;9.15;;;5.32;;
7767;SDS011;3928;42.626;23.382;2023-08-21T11:40:52;9.93;;;5.00;;
7767;SDS011;3928;42.626;23.382;2023-08-21T11:43:23;10.70;;;4.75;;
7767;SDS011;3928;42.626;23.382;2023-08-21T11:46:01;6.65;;;4.53;;
7767;SDS011;3928;42.626;23.382;2023-08-21T11:48:28;8.05;;;4.72;;
7767;SDS011;3928;42.626;23.382;2023-08-21T11:50:57;6.45;;;4.50;;
7767;SDS011;3928;42.626;23.382;2023-08-21T11:53:34;6.10;;;4.70;;
7767;SDS011;3928;42.626;23.382;2023-08-21T11:56:02;8.27;;;4.28;;
7767;SDS011;3928;42.626;23.382;2023-08-21T11:58:37;7.72;;;4.80;;
7767;SDS011;3928;42.626;23.382;2023-08-21T12:01:05;12.35;;;5.07;;
7767;SDS011;3928;42.626;23.382;2023-08-21T12:03:35;7.03;;;5.15;;
7767;SDS011;3928;42.626;23.382;2023-08-21T12:06:05;7.75;;;5.28;;
7767;SDS011;3928;42.626;23.382;2023-08-21T12:08:33;7.05;;;4.38;;
7767;SDS011;3928;42.626;23.382;2023-08-21T12:11:01;5.78;;;5.10;;
7767;SDS011;3928;42.626;23.382;2023-08-21T12:13:28;5.93;;;4.35;;
7767;SDS011;3928;42.626;23.382;2023-08-21T12:15:55;9.02;;;4.82;;
7767;SDS011;3928;42.626;23.382;2023-08-21T12:18:22;6.22;;;4.57;;
7767;SDS011;3928;42.626;23.382;2023-08-21T12:20:49;9.15;;;4.68;;
7767;SDS011;3928;42.626;23.382;2023-08-21T12:23:18;9.40;;;4.57;;
7767;SDS011;3928;42.626;23.382;2023-08-21T12:25:45;6.22;;;4.57;;
7767;SDS011;3928;42.626;23.382;2023-08-21T12:28:12;11.63;;;4.65;;
7767;SDS011;3928;42.626;23.382;2023-08-21T12:30:39;8.10;;;4.50;;
7767;SDS011;3928;42.626;23.382;2023-08-21T12:33:06;8.75;;;4.72;;
7767;SDS011;3928;42.626;23.382;2023-08-21T12:35:33;6.75;;;5.13;;
7767;SDS011;3928;42.626;23.382;2023-08-21T12:38:00;7.28;;;4.50;;
7767;SDS011;3928;42.626;23.382;2023-08-21T12:40:32;10.63;;;5.18;;
7767;SDS011;3928;42.626;23.382;2023-08-21T12:42:59;6.00;;;4.55;;
7767;SDS011;3928;42.626;23.382;2023-08-21T12:45:25;5.72;;;4.40;;
7767;SDS011;3928;42.626;23.382;2023-08-21T12:47:52;6.22;;;4.40;;
7767;SDS011;3928;42.626;23.382;2023-08-21T12:50:19;5.60;;;4.50;;
7767;SDS011;3928;42.626;23.382;2023-08-21T12:52:46;8.43;;;4.60;;
7767;SDS011;3928;42.626;23.382;2023-08-21T12:55:13;5.22;;;4.15;;
7767;SDS011;3928;42.626;23.382;2023-08-21T12:57:42;7.82;;;5.00;;
7767;SDS011;3928;42.626;23.382;2023-08-21T13:00:09;7.97;;;5.28;;
7767;SDS011;3928;42.626;23.382;2023-08-21T13:02:37;9.70;;;5.15;;
7767;SDS011;3928;42.626;23.382;2023-08-21T13:05:04;12.80;;;10.32;;
7767;SDS011;3928;42.626;23.382;2023-08-21T13:07:32;15.07;;;11.43;;
7767;SDS011;3928;42.626;23.382;2023-08-21T13:09:59;10.70;;;6.53;;
7767;SDS011;3928;42.626;23.382;2023-08-21T13:12:26;8.35;;;4.30;;
7767;SDS011;3928;42.626;23.382;2023-08-21T13:14:55;9.57;;;4.65;;
7767;SDS011;3928;42.626;23.382;2023-08-21T13:17:23;5.55;;;4.93;;
7767;SDS011;3928;42.626;23.382;2023-08-21T13:19:50;8.10;;;4.85;;
7767;SDS011;3928;42.626;23.382;2023-08-21T13:22:17;6.45;;;4.47;;
7767;SDS011;3928;42.626;23.382;2023-08-21T13:24:44;4.80;;;4.35;;
7767;SDS011;3928;42.626;23.382;2023-08-21T13:27:11;9.75;;;4.43;;
7767;SDS011;3928;42.626;23.382;2023-08-21T13:29:38;5.80;;;4.50;;
7767;SDS011;3928;42.626;23.382;2023-08-21T13:32:07;7.15;;;4.20;;
7767;SDS011;3928;42.626;23.382;2023-08-21T13:34:35;6.53;;;4.93;;
7767;SDS011;3928;42.626;23.382;2023-08-21T13:37:02;7.78;;;5.50;;
7767;SDS011;3928;42.626;23.382;2023-08-21T13:39:30;7.63;;;5.13;;
7767;SDS011;3928;42.626;23.382;2023-08-21T13:41:57;8.40;;;5.43;;
7767;SDS011;3928;42.626;23.382;2023-08-21T13:44:24;7.25;;;4.43;;
7767;SDS011;3928;42.626;23.382;2023-08-21T13:46:51;8.82;;;4.53;;
7767;SDS011;3928;42.626;23.382;2023-08-21T13:49:19;7.70;;;4.90;;
7767;SDS011;3928;42.626;23.382;2023-08-21T13:51:46;8.75;;;4.75;;
7767;SDS011;3928;42.626;23.382;2023-08-21T13:54:13;5.90;;;4.93;;
7767;SDS011;3928;42.626;23.382;2023-08-21T13:56:40;16.52;;;5.03;;
7767;SDS011;3928;42.626;23.382;2023-08-21T13:59:07;9.75;;;4.88;;
7767;SDS011;3928;42.626;23.382;2023-08-21T14:01:34;9.25;;;4.68;;
7767;SDS011;3928;42.626;23.382;2023-08-21T14:04:01;9.93;;;4.82;;
7767;SDS011;3928;42.626;23.382;2023-08-21T14:06:29;6.88;;;4.80;;
7767;SDS011;3928;42.626;23.382;2023-08-21T14:08:56;9.10;;;4.53;;
7767;SDS011;3928;42.626;23.382;2023-08-21T14:11:23;12.85;;;5.78;;
7767;SDS011;3928;42.626;23.382;2023-08-21T14:13:50;11.88;;;6.15;;
7767;SDS011;3928;42.626;23.382;2023-08-21T14:16:17;9.82;;;5.80;;
7767;SDS011;3928;42.626;23.382;2023-08-21T14:18:44;7.15;;;4.55;;
7767;SDS011;3928;42.626;23.382;2023-08-21T14:21:11;10.68;;;5.05;;
7767;SDS011;3928;42.626;23.382;2023-08-21T14:23:39;5.20;;;4.72;;
7767;SDS011;3928;42.626;23.382;2023-08-21T14:26:07;8.70;;;4.68;;
7767;SDS011;3928;42.626;23.382;2023-08-21T14:28:34;7.43;;;5.45;;
7767;SDS011;3928;42.626;23.382;2023-08-21T14:31:01;10.40;;;5.72;;
7767;SDS011;3928;42.626;23.382;2023-08-21T14:33:28;15.80;;;5.55;;
7767;SDS011;3928;42.626;23.382;2023-08-21T14:35:55;10.32;;;5.53;;
7767;SDS011;3928;42.626;23.382;2023-08-21T14:38:22;7.38;;;6.30;;
7767;SDS011;3928;42.626;23.382;2023-08-21T14:40:51;15.02;;;5.72;;
7767;SDS011;3928;42.626;23.382;2023-08-21T14:43:19;11.55;;;5.15;;
7767;SDS011;3928;42.626;23.382;2023-08-21T14:45:46;6.15;;;4.43;;
7767;SDS011;3928;42.626;23.382;2023-08-21T14:48:13;7.43;;;4.75;;
7767;SDS011;3928;42.626;23.382;2023-08-21T14:50:40;6.70;;;5.25;;
7767;SDS011;3928;42.626;23.382;2023-08-21T14:53:07;11.82;;;5.50;;
7767;SDS011;3928;42.626;23.382;2023-08-21T14:55:34;5.90;;;5.28;;
7767;SDS011;3928;42.626;23.382;2023-08-21T14:58:02;15.43;;;5.18;;
7767;SDS011;3928;42.626;23.382;2023-08-21T15:00:32;6.15;;;5.38;;
7767;SDS011;3928;42.626;23.382;2023-08-21T15:02:59;7.00;;;4.80;;